sensor_id;sensor_type;location;lat;lon;timestamp;pressure;altitude;pressure_sealevel;temperature;humidity
21555;BME280;10938;44.794;-0.676;2022-07-23T00:00:09;101654.34;;;25.14;40.59
21555;BME280;10938;44.794;-0.676;2022-07-23T00:02:35;101652.56;;;25.67;38.29
21555;BME280;10938;44.794;-0.676;2022-07-23T00:05:01;101651.91;;;25.34;39.54
21555;BME280;10938;44.794;-0.676;2022-07-23T00:07:27;101642.75;;;25.15;39.64
21555;BME280;10938;44.794;-0.676;2022-07-23T00:09:52;101639.47;;;25.05;39.60
21555;BME280;10938;44.794;-0.676;2022-07-23T00:12:17;101640.44;;;25.03;39.84
21555;BME280;10938;44.794;-0.676;2022-07-23T00:14:43;101637.88;;;25.00;39.24
21555;BME280;10938;44.794;-0.676;2022-07-23T00:17:09;101633.56;;;24.96;39.53
21555;BME280;10938;44.794;-0.676;2022-07-23T00:19:34;101643.66;;;24.86;39.63
21555;BME280;10938;44.794;-0.676;2022-07-23T00:21:59;101640.97;;;24.88;39.74
21555;BME280;10938;44.794;-0.676;2022-07-23T00:24:25;101637.28;;;24.92;39.75
21555;BME280;10938;44.794;-0.676;2022-07-23T00:26:50;101631.88;;;24.64;39.77
21555;BME280;10938;44.794;-0.676;2022-07-23T00:29:16;101628.97;;;26.29;36.88
21555;BME280;10938;44.794;-0.676;2022-07-23T00:31:41;101631.88;;;25.21;38.34
21555;BME280;10938;44.794;-0.676;2022-07-23T00:34:06;101629.78;;;25.03;39.96
21555;BME280;10938;44.794;-0.676;2022-07-23T00:36:32;101622.31;;;25.67;37.97
21555;BME280;10938;44.794;-0.676;2022-07-23T00:38:57;101620.56;;;25.39;38.80
21555;BME280;10938;44.794;-0.676;2022-07-23T00:41:23;101625.25;;;27.23;35.97
21555;BME280;10938;44.794;-0.676;2022-07-23T00:43:48;101619.13;;;26.53;36.80
21555;BME280;10938;44.794;-0.676;2022-07-23T00:46:19;101626.13;;;25.05;39.00
21555;BME280;10938;44.794;-0.676;2022-07-23T00:48:45;101614.06;;;24.94;38.22
21555;BME280;10938;44.794;-0.676;2022-07-23T00:51:10;101607.63;;;25.27;38.02
21555;BME280;10938;44.794;-0.676;2022-07-23T00:53:36;101611.00;;;25.32;37.96
21555;BME280;10938;44.794;-0.676;2022-07-23T00:56:02;101611.22;;;25.26;39.06
21555;BME280;10938;44.794;-0.676;2022-07-23T00:58:27;101612.53;;;25.13;38.53
21555;BME280;10938;44.794;-0.676;2022-07-23T01:00:53;101616.88;;;25.17;37.92
21555;BME280;10938;44.794;-0.676;2022-07-23T01:03:18;101618.63;;;24.90;39.80
21555;BME280;10938;44.794;-0.676;2022-07-23T01:05:45;101615.53;;;25.04;39.10
21555;BME280;10938;44.794;-0.676;2022-07-23T01:08:10;101622.97;;;24.65;40.58
21555;BME280;10938;44.794;-0.676;2022-07-23T01:10:36;101620.00;;;24.74;40.48
21555;BME280;10938;44.794;-0.676;2022-07-23T01:13:04;101615.16;;;24.88;39.68
21555;BME280;10938;44.794;-0.676;2022-07-23T01:15:30;101618.13;;;25.05;39.28
21555;BME280;10938;44.794;-0.676;2022-07-23T01:17:56;101599.19;;;25.13;38.77
21555;BME280;10938;44.794;-0.676;2022-07-23T01:20:21;101600.63;;;25.23;38.61
21555;BME280;10938;44.794;-0.676;2022-07-23T01:22:47;101606.06;;;25.46;37.88
21555;BME280;10938;44.794;-0.676;2022-07-23T01:25:13;101606.91;;;25.48;38.55
21555;BME280;10938;44.794;-0.676;2022-07-23T01:27:38;101601.16;;;25.60;37.55
21555;BME280;10938;44.794;-0.676;2022-07-23T01:30:04;101609.50;;;25.25;39.13
21555;BME280;10938;44.794;-0.676;2022-07-23T01:32:30;101613.47;;;25.12;39.38
21555;BME280;10938;44.794;-0.676;2022-07-23T01:34:56;101614.09;;;24.92;38.83
21555;BME280;10938;44.794;-0.676;2022-07-23T01:37:22;101608.72;;;25.22;39.11
21555;BME280;10938;44.794;-0.676;2022-07-23T01:39:47;101602.53;;;24.64;39.45
21555;BME280;10938;44.794;-0.676;2022-07-23T01:42:13;101606.44;;;24.52;39.55
21555;BME280;10938;44.794;-0.676;2022-07-23T01:44:39;101605.34;;;24.59;39.29
21555;BME280;10938;44.794;-0.676;2022-07-23T01:47:05;101593.56;;;24.67;39.95
21555;BME280;10938;44.794;-0.676;2022-07-23T01:49:31;101595.88;;;24.49;40.49
21555;BME280;10938;44.794;-0.676;2022-07-23T01:51:56;101594.50;;;25.97;37.89
21555;BME280;10938;44.794;-0.676;2022-07-23T01:54:28;101592.78;;;24.63;40.47
21555;BME280;10938;44.794;-0.676;2022-07-23T01:56:53;101590.81;;;24.40;40.44
21555;BME280;10938;44.794;-0.676;2022-07-23T01:59:19;101601.00;;;24.55;40.89
21555;BME280;10938;44.794;-0.676;2022-07-23T02:01:44;101595.84;;;24.51;41.11
21555;BME280;10938;44.794;-0.676;2022-07-23T02:04:10;101590.63;;;24.46;40.90
21555;BME280;10938;44.794;-0.676;2022-07-23T02:06:35;101585.88;;;24.28;41.52
21555;BME280;10938;44.794;-0.676;2022-07-23T02:09:00;101587.16;;;24.15;41.92
21555;BME280;10938;44.794;-0.676;2022-07-23T02:11:26;101580.66;;;24.81;40.67
21555;BME280;10938;44.794;-0.676;2022-07-23T02:13:51;101587.56;;;24.60;40.74
21555;BME280;10938;44.794;-0.676;2022-07-23T02:16:17;101588.44;;;24.31;41.26
21555;BME280;10938;44.794;-0.676;2022-07-23T02:18:42;101577.31;;;24.17;41.32
21555;BME280;10938;44.794;-0.676;2022-07-23T02:21:07;101590.56;;;24.19;40.87
21555;BME280;10938;44.794;-0.676;2022-07-23T02:23:33;101587.41;;;24.35;40.39
21555;BME280;10938;44.794;-0.676;2022-07-23T02:25:59;101590.53;;;24.49;40.36
21555;BME280;10938;44.794;-0.676;2022-07-23T02:28:24;101589.53;;;24.53;39.96
21555;BME280;10938;44.794;-0.676;2022-07-23T02:30:50;101583.09;;;24.60;40.62
21555;BME280;10938;44.794;-0.676;2022-07-23T02:33:15;101591.97;;;24.61;40.20
21555;BME280;10938;44.794;-0.676;2022-07-23T02:35:41;101588.78;;;24.19;41.38
21555;BME280;10938;44.794;-0.676;2022-07-23T02:38:06;101591.59;;;24.15;41.03
21555;BME280;10938;44.794;-0.676;2022-07-23T02:40:32;101594.88;;;24.24;40.60
21555;BME280;10938;44.794;-0.676;2022-07-23T02:42:57;101591.88;;;24.04;41.63
21555;BME280;10938;44.794;-0.676;2022-07-23T02:45:23;101599.53;;;24.45;39.82
21555;BME280;10938;44.794;-0.676;2022-07-23T02:47:48;101601.78;;;23.99;41.04
21555;BME280;10938;44.794;-0.676;2022-07-23T02:50:14;101601.66;;;24.03;40.98
21555;BME280;10938;44.794;-0.676;2022-07-23T02:52:39;101590.38;;;25.37;38.29
21555;BME280;10938;44.794;-0.676;2022-07-23T02:55:05;101598.41;;;24.25;41.09
21555;BME280;10938;44.794;-0.676;2022-07-23T02:57:31;101595.06;;;24.18;40.84
21555;BME280;10938;44.794;-0.676;2022-07-23T02:59:56;101604.28;;;24.05;41.59
21555;BME280;10938;44.794;-0.676;2022-07-23T03:02:22;101601.84;;;23.97;41.41
21555;BME280;10938;44.794;-0.676;2022-07-23T03:04:48;101606.97;;;24.03;41.82
21555;BME280;10938;44.794;-0.676;2022-07-23T03:07:15;101599.88;;;24.04;42.48
21555;BME280;10938;44.794;-0.676;2022-07-23T03:09:41;101599.03;;;24.02;41.30
21555;BME280;10938;44.794;-0.676;2022-07-23T03:12:07;101594.28;;;25.27;38.87
21555;BME280;10938;44.794;-0.676;2022-07-23T03:14:32;101596.72;;;23.90;41.19
21555;BME280;10938;44.794;-0.676;2022-07-23T03:16:58;101600.53;;;24.43;40.25
21555;BME280;10938;44.794;-0.676;2022-07-23T03:19:25;101610.28;;;24.13;41.22
21555;BME280;10938;44.794;-0.676;2022-07-23T03:21:50;101603.16;;;24.72;39.36
21555;BME280;10938;44.794;-0.676;2022-07-23T03:24:15;101603.56;;;24.31;39.53
21555;BME280;10938;44.794;-0.676;2022-07-23T03:26:43;101599.44;;;24.19;40.44
21555;BME280;10938;44.794;-0.676;2022-07-23T03:29:08;101596.69;;;24.22;40.47
21555;BME280;10938;44.794;-0.676;2022-07-23T03:31:34;101586.13;;;24.19;40.33
21555;BME280;10938;44.794;-0.676;2022-07-23T03:33:59;101587.34;;;24.07;40.52
21555;BME280;10938;44.794;-0.676;2022-07-23T03:36:25;101588.31;;;24.05;41.15
21555;BME280;10938;44.794;-0.676;2022-07-23T03:38:51;101582.41;;;25.36;39.41
21555;BME280;10938;44.794;-0.676;2022-07-23T03:41:18;101582.06;;;24.94;nan
21555;BME280;10938;44.794;-0.676;2022-07-23T03:43:43;101582.66;;;24.16;nan
21555;BME280;10938;44.794;-0.676;2022-07-23T03:46:08;101580.53;;;24.28;nan
21555;BME280;10938;44.794;-0.676;2022-07-23T03:48:35;101575.38;;;24.22;nan
21555;BME280;10938;44.794;-0.676;2022-07-23T03:51:00;101570.16;;;25.30;nan
21555;BME280;10938;44.794;-0.676;2022-07-23T03:53:25;101575.28;;;24.25;nan
21555;BME280;10938;44.794;-0.676;2022-07-23T03:55:51;101581.22;;;24.04;nan
21555;BME280;10938;44.794;-0.676;2022-07-23T03:58:16;101579.03;;;23.87;nan
21555;BME280;10938;44.794;-0.676;2022-07-23T04:00:42;101578.66;;;23.69;nan
21555;BME280;10938;44.794;-0.676;2022-07-23T04:03:07;101583.41;;;23.57;nan
21555;BME280;10938;44.794;-0.676;2022-07-23T04:05:33;101581.19;;;23.73;nan
21555;BME280;10938;44.794;-0.676;2022-07-23T04:07:58;101576.75;;;23.74;nan
21555;BME280;10938;44.794;-0.676;2022-07-23T04:10:24;101582.88;;;24.08;nan
21555;BME280;10938;44.794;-0.676;2022-07-23T04:12:49;101585.31;;;23.85;nan
21555;BME280;10938;44.794;-0.676;2022-07-23T04:15:15;101587.88;;;23.55;nan
21555;BME280;10938;44.794;-0.676;2022-07-23T04:17:40;101581.81;;;23.83;nan
21555;BME280;10938;44.794;-0.676;2022-07-23T04:20:06;101586.81;;;23.95;nan
21555;BME280;10938;44.794;-0.676;2022-07-23T04:22:31;101594.13;;;23.87;nan
21555;BME280;10938;44.794;-0.676;2022-07-23T04:24:57;101589.13;;;24.07;nan
21555;BME280;10938;44.794;-0.676;2022-07-23T04:27:22;101585.16;;;23.91;nan
21555;BME280;10938;44.794;-0.676;2022-07-23T04:29:47;101593.88;;;23.96;nan
21555;BME280;10938;44.794;-0.676;2022-07-23T04:32:13;101585.25;;;23.88;nan
21555;BME280;10938;44.794;-0.676;2022-07-23T04:34:39;101606.13;;;24.34;nan
21555;BME280;10938;44.794;-0.676;2022-07-23T04:37:04;101600.75;;;24.65;nan
21555;BME280;10938;44.794;-0.676;2022-07-23T04:39:30;101605.75;;;25.03;nan
21555;BME280;10938;44.794;-0.676;2022-07-23T04:41:55;101599.22;;;24.85;nan
21555;BME280;10938;44.794;-0.676;2022-07-23T04:44:21;101606.97;;;24.03;nan
21555;BME280;10938;44.794;-0.676;2022-07-23T04:46:46;101601.06;;;24.83;nan
21555;BME280;10938;44.794;-0.676;2022-07-23T04:49:12;101614.28;;;24.88;nan
21555;BME280;10938;44.794;-0.676;2022-07-23T04:51:37;101612.63;;;25.38;nan
21555;BME280;10938;44.794;-0.676;2022-07-23T04:54:03;101615.22;;;25.66;nan
21555;BME280;10938;44.794;-0.676;2022-07-23T04:56:28;101618.00;;;25.63;nan
21555;BME280;10938;44.794;-0.676;2022-07-23T04:58:54;101616.72;;;25.48;nan
21555;BME280;10938;44.794;-0.676;2022-07-23T05:01:20;101622.75;;;25.54;nan
21555;BME280;10938;44.794;-0.676;2022-07-23T05:03:45;101622.75;;;25.54;nan
21555;BME280;10938;44.794;-0.676;2022-07-23T05:06:10;101608.63;;;25.51;nan
21555;BME280;10938;44.794;-0.676;2022-07-23T05:08:36;101613.50;;;25.65;nan
21555;BME280;10938;44.794;-0.676;2022-07-23T05:11:01;101622.22;;;25.94;nan
21555;BME280;10938;44.794;-0.676;2022-07-23T05:13:26;101623.22;;;25.92;nan
21555;BME280;10938;44.794;-0.676;2022-07-23T05:15:52;101623.47;;;26.55;nan
21555;BME280;10938;44.794;-0.676;2022-07-23T05:18:17;101624.06;;;26.63;nan
21555;BME280;10938;44.794;-0.676;2022-07-23T05:20:43;101615.25;;;26.61;nan
21555;BME280;10938;44.794;-0.676;2022-07-23T05:23:08;101626.22;;;26.77;nan
21555;BME280;10938;44.794;-0.676;2022-07-23T05:25:34;101616.41;;;26.54;nan
21555;BME280;10938;44.794;-0.676;2022-07-23T05:27:59;101621.59;;;26.81;nan
21555;BME280;10938;44.794;-0.676;2022-07-23T05:30:24;101629.50;;;27.07;nan
21555;BME280;10938;44.794;-0.676;2022-07-23T05:32:50;101624.13;;;27.29;nan
21555;BME280;10938;44.794;-0.676;2022-07-23T05:35:16;101629.84;;;27.20;nan
21555;BME280;10938;44.794;-0.676;2022-07-23T05:37:41;101622.88;;;27.37;nan
21555;BME280;10938;44.794;-0.676;2022-07-23T05:40:09;101619.03;;;27.43;nan
21555;BME280;10938;44.794;-0.676;2022-07-23T05:42:36;101627.88;;;27.03;nan
21555;BME280;10938;44.794;-0.676;2022-07-23T05:45:02;101622.75;;;26.97;nan
21555;BME280;10938;44.794;-0.676;2022-07-23T05:47:28;101619.78;;;27.04;nan
21555;BME280;10938;44.794;-0.676;2022-07-23T05:49:53;101626.19;;;27.42;nan
21555;BME280;10938;44.794;-0.676;2022-07-23T05:52:19;101626.47;;;27.58;nan
21555;BME280;10938;44.794;-0.676;2022-07-23T05:54:44;101629.22;;;27.77;nan
21555;BME280;10938;44.794;-0.676;2022-07-23T05:57:10;101629.75;;;27.44;nan
21555;BME280;10938;44.794;-0.676;2022-07-23T05:59:35;101628.44;;;27.75;nan
21555;BME280;10938;44.794;-0.676;2022-07-23T06:02:01;101621.91;;;28.00;nan
21555;BME280;10938;44.794;-0.676;2022-07-23T06:04:26;101623.31;;;28.09;nan
21555;BME280;10938;44.794;-0.676;2022-07-23T06:06:51;101627.94;;;28.44;nan
21555;BME280;10938;44.794;-0.676;2022-07-23T06:09:17;101623.91;;;28.92;nan
21555;BME280;10938;44.794;-0.676;2022-07-23T06:11:43;101632.91;;;29.45;nan
21555;BME280;10938;44.794;-0.676;2022-07-23T06:14:09;101626.56;;;29.81;nan
21555;BME280;10938;44.794;-0.676;2022-07-23T06:16:34;101629.97;;;30.34;nan
21555;BME280;10938;44.794;-0.676;2022-07-23T06:18:59;101633.69;;;31.11;nan
21555;BME280;10938;44.794;-0.676;2022-07-23T06:21:25;101634.00;;;31.37;nan
21555;BME280;10938;44.794;-0.676;2022-07-23T06:23:50;101626.75;;;32.96;nan
21555;BME280;10938;44.794;-0.676;2022-07-23T06:26:16;101627.63;;;34.76;nan
21555;BME280;10938;44.794;-0.676;2022-07-23T06:28:41;101633.81;;;39.60;nan
21555;BME280;10938;44.794;-0.676;2022-07-23T06:31:07;101646.94;;;43.20;nan
21555;BME280;10938;44.794;-0.676;2022-07-23T06:33:33;101645.59;;;43.96;nan
21555;BME280;10938;44.794;-0.676;2022-07-23T06:35:58;101652.69;;;44.46;nan
21555;BME280;10938;44.794;-0.676;2022-07-23T06:38:24;101662.09;;;46.27;nan
21555;BME280;10938;44.794;-0.676;2022-07-23T06:40:50;101658.97;;;47.73;nan
21555;BME280;10938;44.794;-0.676;2022-07-23T06:43:15;101650.09;;;46.34;nan
21555;BME280;10938;44.794;-0.676;2022-07-23T06:45:41;101653.94;;;44.27;nan
21555;BME280;10938;44.794;-0.676;2022-07-23T06:48:06;101647.88;;;41.04;nan
21555;BME280;10938;44.794;-0.676;2022-07-23T06:50:32;101642.41;;;39.17;nan
21555;BME280;10938;44.794;-0.676;2022-07-23T06:52:57;101642.63;;;37.74;nan
21555;BME280;10938;44.794;-0.676;2022-07-23T06:55:23;101648.50;;;36.72;nan
21555;BME280;10938;44.794;-0.676;2022-07-23T06:57:48;101647.63;;;36.38;nan
21555;BME280;10938;44.794;-0.676;2022-07-23T07:00:14;101648.00;;;35.53;nan
21555;BME280;10938;44.794;-0.676;2022-07-23T07:02:39;101650.72;;;35.18;nan
21555;BME280;10938;44.794;-0.676;2022-07-23T07:05:05;101651.38;;;35.09;nan
21555;BME280;10938;44.794;-0.676;2022-07-23T07:07:30;101650.16;;;34.89;nan
21555;BME280;10938;44.794;-0.676;2022-07-23T07:09:56;101647.84;;;34.34;nan
21555;BME280;10938;44.794;-0.676;2022-07-23T07:12:21;101653.88;;;34.50;nan
21555;BME280;10938;44.794;-0.676;2022-07-23T07:14:47;101656.81;;;34.73;nan
21555;BME280;10938;44.794;-0.676;2022-07-23T07:17:12;101653.22;;;34.59;nan
21555;BME280;10938;44.794;-0.676;2022-07-23T07:19:38;101650.25;;;34.88;nan
21555;BME280;10938;44.794;-0.676;2022-07-23T07:22:03;101657.00;;;34.70;nan
21555;BME280;10938;44.794;-0.676;2022-07-23T07:24:29;101652.03;;;35.00;nan
21555;BME280;10938;44.794;-0.676;2022-07-23T07:26:54;101655.84;;;34.61;nan
21555;BME280;10938;44.794;-0.676;2022-07-23T07:29:19;101655.88;;;35.45;nan
21555;BME280;10938;44.794;-0.676;2022-07-23T07:31:45;101651.50;;;37.55;nan
21555;BME280;10938;44.794;-0.676;2022-07-23T07:34:10;101676.19;;;45.94;nan
21555;BME280;10938;44.794;-0.676;2022-07-23T07:36:36;101690.88;;;51.53;nan
21555;BME280;10938;44.794;-0.676;2022-07-23T07:39:03;101687.59;;;54.21;nan
21555;BME280;10938;44.794;-0.676;2022-07-23T07:41:30;101697.84;;;53.62;nan
21555;BME280;10938;44.794;-0.676;2022-07-23T07:43:55;101700.09;;;56.60;nan
21555;BME280;10938;44.794;-0.676;2022-07-23T07:46:21;101698.28;;;55.60;nan
21555;BME280;10938;44.794;-0.676;2022-07-23T07:48:49;101686.66;;;52.18;nan
21555;BME280;10938;44.794;-0.676;2022-07-23T07:51:15;101682.84;;;51.07;nan
21555;BME280;10938;44.794;-0.676;2022-07-23T07:53:40;101683.56;;;49.53;nan
21555;BME280;10938;44.794;-0.676;2022-07-23T07:56:06;101672.72;;;46.00;nan
21555;BME280;10938;44.794;-0.676;2022-07-23T07:58:31;101680.97;;;49.38;nan
21555;BME280;10938;44.794;-0.676;2022-07-23T08:00:57;101686.81;;;50.80;nan
21555;BME280;10938;44.794;-0.676;2022-07-23T08:03:22;101680.84;;;47.11;nan
21555;BME280;10938;44.794;-0.676;2022-07-23T08:05:48;101675.47;;;45.40;nan
21555;BME280;10938;44.794;-0.676;2022-07-23T08:08:13;101670.56;;;44.89;nan
21555;BME280;10938;44.794;-0.676;2022-07-23T08:10:42;101668.81;;;42.95;nan
21555;BME280;10938;44.794;-0.676;2022-07-23T08:13:12;101666.75;;;42.22;nan
21555;BME280;10938;44.794;-0.676;2022-07-23T08:15:38;101669.00;;;46.96;nan
21555;BME280;10938;44.794;-0.676;2022-07-23T08:18:04;101692.88;;;53.23;nan
21555;BME280;10938;44.794;-0.676;2022-07-23T08:20:29;101689.41;;;50.62;nan
21555;BME280;10938;44.794;-0.676;2022-07-23T08:23:00;101679.38;;;47.93;nan
21555;BME280;10938;44.794;-0.676;2022-07-23T08:25:30;101675.09;;;46.03;nan
21555;BME280;10938;44.794;-0.676;2022-07-23T08:28:01;101665.72;;;43.81;nan
21555;BME280;10938;44.794;-0.676;2022-07-23T08:30:30;101667.53;;;42.74;nan
21555;BME280;10938;44.794;-0.676;2022-07-23T08:33:07;101661.53;;;42.44;nan
21555;BME280;10938;44.794;-0.676;2022-07-23T08:35:50;101668.91;;;43.36;nan
21555;BME280;10938;44.794;-0.676;2022-07-23T08:38:19;101673.59;;;42.51;nan
21555;BME280;10938;44.794;-0.676;2022-07-23T08:40:50;101674.03;;;41.70;nan
21555;BME280;10938;44.794;-0.676;2022-07-23T08:43:21;101671.97;;;42.33;nan
21555;BME280;10938;44.794;-0.676;2022-07-23T08:45:49;101686.00;;;45.06;nan
21555;BME280;10938;44.794;-0.676;2022-07-23T08:48:17;101677.88;;;44.27;nan
21555;BME280;10938;44.794;-0.676;2022-07-23T08:50:45;101675.97;;;44.11;nan
21555;BME280;10938;44.794;-0.676;2022-07-23T08:53:11;101675.63;;;43.33;nan
21555;BME280;10938;44.794;-0.676;2022-07-23T08:55:37;101670.06;;;43.01;nan
21555;BME280;10938;44.794;-0.676;2022-07-23T08:58:03;101677.53;;;42.91;nan
21555;BME280;10938;44.794;-0.676;2022-07-23T09:00:29;101678.00;;;43.20;nan
21555;BME280;10938;44.794;-0.676;2022-07-23T09:02:54;101678.81;;;43.04;nan
21555;BME280;10938;44.794;-0.676;2022-07-23T09:05:20;101679.22;;;42.76;nan
21555;BME280;10938;44.794;-0.676;2022-07-23T09:08:22;101674.50;;;41.83;nan
21555;BME280;10938;44.794;-0.676;2022-07-23T09:10:53;101675.91;;;41.51;nan
21555;BME280;10938;44.794;-0.676;2022-07-23T09:19:22;101678.91;;;43.45;nan
21555;BME280;10938;44.794;-0.676;2022-07-23T09:24:03;101712.13;;;54.94;nan
21555;BME280;10938;44.794;-0.676;2022-07-23T09:26:30;101708.81;;;54.22;nan
21555;BME280;10938;44.794;-0.676;2022-07-23T09:29:02;101702.88;;;54.65;nan
21555;BME280;10938;44.794;-0.676;2022-07-23T09:31:57;101710.88;;;57.43;nan
21555;BME280;10938;44.794;-0.676;2022-07-23T09:34:27;101696.84;;;53.15;nan
21555;BME280;10938;44.794;-0.676;2022-07-23T09:37:08;101686.13;;;50.20;nan
21555;BME280;10938;44.794;-0.676;2022-07-23T09:39:34;101682.03;;;48.36;nan
21555;BME280;10938;44.794;-0.676;2022-07-23T09:42:19;101675.16;;;45.35;nan
21555;BME280;10938;44.794;-0.676;2022-07-23T09:44:47;101673.59;;;43.51;nan
21555;BME280;10938;44.794;-0.676;2022-07-23T09:47:13;101673.13;;;42.04;nan
21555;BME280;10938;44.794;-0.676;2022-07-23T09:49:38;101667.06;;;40.95;nan
21555;BME280;10938;44.794;-0.676;2022-07-23T09:52:04;101671.06;;;41.45;nan
21555;BME280;10938;44.794;-0.676;2022-07-23T09:54:33;101673.59;;;42.85;nan
21555;BME280;10938;44.794;-0.676;2022-07-23T09:57:05;101679.69;;;48.39;nan
21555;BME280;10938;44.794;-0.676;2022-07-23T09:59:35;101699.19;;;54.53;nan
21555;BME280;10938;44.794;-0.676;2022-07-23T10:02:01;101705.88;;;56.31;nan
21555;BME280;10938;44.794;-0.676;2022-07-23T10:04:29;101699.22;;;57.29;nan
21555;BME280;10938;44.794;-0.676;2022-07-23T10:06:58;101694.38;;;54.36;nan
21555;BME280;10938;44.794;-0.676;2022-07-23T10:09:30;101678.50;;;52.41;nan
21555;BME280;10938;44.794;-0.676;2022-07-23T10:11:59;101681.41;;;52.65;nan
21555;BME280;10938;44.794;-0.676;2022-07-23T10:14:39;101678.34;;;54.44;nan
21555;BME280;10938;44.794;-0.676;2022-07-23T10:17:07;101673.22;;;51.66;nan
21555;BME280;10938;44.794;-0.676;2022-07-23T10:19:33;101661.53;;;47.75;nan
21555;BME280;10938;44.794;-0.676;2022-07-23T10:22:10;101645.84;;;45.80;nan
21555;BME280;10938;44.794;-0.676;2022-07-23T10:25:20;101641.13;;;42.81;nan
21555;BME280;10938;44.794;-0.676;2022-07-23T10:27:50;101636.47;;;42.31;nan
21555;BME280;10938;44.794;-0.676;2022-07-23T10:33:32;101631.06;;;42.97;nan
21555;BME280;10938;44.794;-0.676;2022-07-23T10:36:19;101625.53;;;42.73;nan
21555;BME280;10938;44.794;-0.676;2022-07-23T10:41:11;101617.66;;;41.85;nan
21555;BME280;10938;44.794;-0.676;2022-07-23T10:43:37;101615.63;;;41.43;nan
21555;BME280;10938;44.794;-0.676;2022-07-23T10:46:24;101623.69;;;40.08;nan
21555;BME280;10938;44.794;-0.676;2022-07-23T10:49:32;101618.03;;;40.84;nan
21555;BME280;10938;44.794;-0.676;2022-07-23T10:52:21;101618.41;;;41.51;nan
21555;BME280;10938;44.794;-0.676;2022-07-23T10:54:49;101618.41;;;40.98;nan
21555;BME280;10938;44.794;-0.676;2022-07-23T10:57:21;101613.09;;;39.96;nan
21555;BME280;10938;44.794;-0.676;2022-07-23T11:02:41;101608.09;;;39.43;nan
21555;BME280;10938;44.794;-0.676;2022-07-23T11:05:08;101610.56;;;39.46;nan
21555;BME280;10938;44.794;-0.676;2022-07-23T11:07:35;101605.34;;;39.82;nan
21555;BME280;10938;44.794;-0.676;2022-07-23T11:10:02;101609.97;;;40.82;nan
21555;BME280;10938;44.794;-0.676;2022-07-23T11:15:12;101599.19;;;39.70;nan
21555;BME280;10938;44.794;-0.676;2022-07-23T11:20:18;101589.41;;;38.41;nan
21555;BME280;10938;44.794;-0.676;2022-07-23T11:25:14;101590.94;;;38.04;nan
21555;BME280;10938;44.794;-0.676;2022-07-23T11:27:55;101580.03;;;38.04;nan
21555;BME280;10938;44.794;-0.676;2022-07-23T11:35:37;101572.06;;;36.32;nan
21555;BME280;10938;44.794;-0.676;2022-07-23T11:38:30;101568.88;;;36.92;nan
21555;BME280;10938;44.794;-0.676;2022-07-23T11:40:56;101572.00;;;37.20;nan
21555;BME280;10938;44.794;-0.676;2022-07-23T11:43:23;101558.94;;;36.37;nan
21555;BME280;10938;44.794;-0.676;2022-07-23T11:45:52;101561.44;;;36.62;nan
21555;BME280;10938;44.794;-0.676;2022-07-23T11:48:23;101569.97;;;37.95;nan
21555;BME280;10938;44.794;-0.676;2022-07-23T11:50:51;101567.94;;;38.57;nan
21555;BME280;10938;44.794;-0.676;2022-07-23T11:55:48;101566.69;;;36.75;nan
21555;BME280;10938;44.794;-0.676;2022-07-23T11:58:13;101555.72;;;36.97;nan
21555;BME280;10938;44.794;-0.676;2022-07-23T12:00:41;101559.72;;;38.08;nan
21555;BME280;10938;44.794;-0.676;2022-07-23T12:03:07;101566.16;;;38.37;nan
21555;BME280;10938;44.794;-0.676;2022-07-23T12:05:35;101560.38;;;36.86;nan
21555;BME280;10938;44.794;-0.676;2022-07-23T12:08:03;101552.91;;;36.99;nan
21555;BME280;10938;44.794;-0.676;2022-07-23T12:10:41;101548.97;;;36.92;nan
21555;BME280;10938;44.794;-0.676;2022-07-23T12:13:09;101540.09;;;37.42;nan
21555;BME280;10938;44.794;-0.676;2022-07-23T12:15:44;101541.94;;;37.21;nan
21555;BME280;10938;44.794;-0.676;2022-07-23T12:18:13;101538.06;;;37.24;nan
21555;BME280;10938;44.794;-0.676;2022-07-23T12:20:41;101537.91;;;38.08;nan
21555;BME280;10938;44.794;-0.676;2022-07-23T12:23:08;101541.44;;;38.29;nan
21555;BME280;10938;44.794;-0.676;2022-07-23T12:25:40;101548.72;;;38.59;nan
21555;BME280;10938;44.794;-0.676;2022-07-23T12:28:11;101540.66;;;38.18;nan
21555;BME280;10938;44.794;-0.676;2022-07-23T12:30:42;101538.78;;;36.51;nan
21555;BME280;10938;44.794;-0.676;2022-07-23T12:33:10;101542.38;;;36.51;nan
21555;BME280;10938;44.794;-0.676;2022-07-23T12:35:41;101542.06;;;37.40;nan
21555;BME280;10938;44.794;-0.676;2022-07-23T12:38:09;101542.66;;;38.46;nan
21555;BME280;10938;44.794;-0.676;2022-07-23T12:40:51;101535.28;;;39.05;nan
21555;BME280;10938;44.794;-0.676;2022-07-23T12:46:17;101530.59;;;37.78;nan
21555;BME280;10938;44.794;-0.676;2022-07-23T12:51:20;101528.53;;;38.81;nan
21555;BME280;10938;44.794;-0.676;2022-07-23T12:56:16;101526.16;;;37.87;nan
21555;BME280;10938;44.794;-0.676;2022-07-23T12:58:54;101520.41;;;37.80;nan
21555;BME280;10938;44.794;-0.676;2022-07-23T13:04:11;101519.63;;;36.63;nan
21555;BME280;10938;44.794;-0.676;2022-07-23T13:06:38;101511.59;;;36.08;nan
21555;BME280;10938;44.794;-0.676;2022-07-23T13:09:06;101522.06;;;35.79;nan
21555;BME280;10938;44.794;-0.676;2022-07-23T13:11:32;101512.44;;;36.08;nan
21555;BME280;10938;44.794;-0.676;2022-07-23T13:13:58;101511.72;;;35.38;nan
21555;BME280;10938;44.794;-0.676;2022-07-23T13:16:26;101510.75;;;35.50;nan
21555;BME280;10938;44.794;-0.676;2022-07-23T13:18:51;101501.09;;;37.00;nan
21555;BME280;10938;44.794;-0.676;2022-07-23T13:21:17;101504.31;;;37.47;nan
21555;BME280;10938;44.794;-0.676;2022-07-23T13:23:43;101498.41;;;37.62;nan
21555;BME280;10938;44.794;-0.676;2022-07-23T13:26:08;101491.66;;;37.36;nan
21555;BME280;10938;44.794;-0.676;2022-07-23T13:28:34;101497.59;;;37.30;nan
21555;BME280;10938;44.794;-0.676;2022-07-23T13:30:59;101490.31;;;36.13;nan
21555;BME280;10938;44.794;-0.676;2022-07-23T13:33:25;101491.13;;;36.47;nan
21555;BME280;10938;44.794;-0.676;2022-07-23T13:35:52;101478.94;;;36.73;nan
21555;BME280;10938;44.794;-0.676;2022-07-23T13:38:19;101485.78;;;37.20;nan